QAK845 MMAS-MMVR
Flight info
| Callsign | QAK845 |
|---|---|
| Flight time | N/A |
| Altitude | 37000 |
| Route | UKIRO1B UKIRO UJ33 QET UT162 TOREO DCT CALIZ/N0362F170 T70 ATUKA DCT UKUNO UT108 TEVET TEVET1B |
| Aircraft | B738/M-SDE2E3FGHIRWXY/LB1 |
Departure
| Time | 2026-04-30 04:25 |
|---|---|
| Airport | Aguascalientes International Airport (MMAS) |
Arrival
| Time | N/A |
|---|---|
| Airport | General Heriberto Jara International Airport (MMVR) |
| Time | Latitude | Longitude | Altitude | Speed | Heading |
|---|---|---|---|---|---|
| 2026-04-30 04:11 | 21.70112 | -102.31475 | 6116 ft | 0 kts | 92° |
| 2026-04-30 04:18 | 21.70113 | -102.31484 | 6116 ft | 3 kts | 92° |
| 2026-04-30 04:18 | 21.70114 | -102.31509 | 6116 ft | 2 kts | 94° |
| 2026-04-30 04:18 | 21.70116 | -102.31525 | 6116 ft | 2 kts | 109° |
| 2026-04-30 04:19 | 21.70122 | -102.31537 | 6116 ft | 1 kts | 133° |
| 2026-04-30 04:19 | 21.70131 | -102.31544 | 6116 ft | 1 kts | 155° |
| 2026-04-30 04:19 | 21.70138 | -102.31548 | 6116 ft | 1 kts | 171° |
| 2026-04-30 04:19 | 21.70144 | -102.31548 | 6116 ft | 0 kts | 182° |
| 2026-04-30 04:21 | 21.70133 | -102.31547 | 6116 ft | 4 kts | 165° |
| 2026-04-30 04:21 | 21.70086 | -102.31537 | 6116 ft | 16 kts | 188° |
| 2026-04-30 04:21 | 21.70017 | -102.31643 | 6116 ft | 24 kts | 219° |
| 2026-04-30 04:22 | 21.69933 | -102.31711 | 6116 ft | 27 kts | 212° |
| 2026-04-30 04:22 | 21.69537 | -102.31842 | 6116 ft | 24 kts | 183° |
| 2026-04-30 04:22 | 21.69374 | -102.31852 | 6116 ft | 24 kts | 181° |
| 2026-04-30 04:23 | 21.68776 | -102.31857 | 6116 ft | 9 kts | 279° |
| 2026-04-30 04:24 | 21.68811 | -102.31873 | 6116 ft | 3 kts | 2° |
| 2026-04-30 04:24 | 21.68818 | -102.31873 | 6116 ft | 0 kts | 3° |
| 2026-04-30 04:24 | 21.68869 | -102.31870 | 6116 ft | 32 kts | 2° |
| 2026-04-30 04:24 | 21.69345 | -102.31854 | 6117 ft | 107 kts | 2° |
| 2026-04-30 04:25 | 21.70345 | -102.31801 | 6139 ft | 171 kts | 2° |
| 2026-04-30 04:25 | 21.71615 | -102.31734 | 6471 ft | 199 kts | 2° |
| 2026-04-30 04:25 | 21.73060 | -102.31666 | 6827 ft | 226 kts | 2° |
| 2026-04-30 04:25 | 21.74629 | -102.31590 | 7031 ft | 229 kts | 2° |
| 2026-04-30 04:26 | 21.76202 | -102.31513 | 7275 ft | 227 kts | 2° |
| 2026-04-30 04:26 | 21.77718 | -102.31250 | 7472 ft | 227 kts | 22° |
| 2026-04-30 04:26 | 21.79015 | -102.30300 | 7760 ft | 247 kts | 47° |
| 2026-04-30 04:26 | 21.79986 | -102.28637 | 8180 ft | 283 kts | 68° |
| 2026-04-30 04:27 | 21.80394 | -102.26548 | 8567 ft | 293 kts | 88° |
| 2026-04-30 04:27 | 21.80151 | -102.24469 | 8834 ft | 293 kts | 107° |
| 2026-04-30 04:27 | 21.79261 | -102.22537 | 9082 ft | 293 kts | 126° |
| 2026-04-30 04:27 | 21.77932 | -102.20896 | 9341 ft | 293 kts | 125° |
| 2026-04-30 04:28 | 21.77069 | -102.18959 | 9593 ft | 293 kts | 106° |
| 2026-04-30 04:28 | 21.76500 | -102.16878 | 9905 ft | 294 kts | 107° |
| 2026-04-30 04:28 | 21.75871 | -102.14780 | 10197 ft | 295 kts | 108° |
| 2026-04-30 04:28 | 21.75265 | -102.12792 | 10458 ft | 296 kts | 108° |
| 2026-04-30 04:29 | 21.74609 | -102.10648 | 10728 ft | 297 kts | 108° |
| 2026-04-30 04:29 | 21.73962 | -102.08536 | 10984 ft | 298 kts | 108° |
| 2026-04-30 04:29 | 21.73326 | -102.06461 | 11229 ft | 299 kts | 108° |
| 2026-04-30 04:29 | 21.72678 | -102.04356 | 11477 ft | 300 kts | 108° |
| 2026-04-30 04:30 | 21.72020 | -102.02227 | 11727 ft | 301 kts | 108° |
| 2026-04-30 04:30 | 21.71377 | -102.00148 | 11971 ft | 302 kts | 108° |
| 2026-04-30 04:30 | 21.70714 | -101.98008 | 12223 ft | 303 kts | 108° |
| 2026-04-30 04:30 | 21.70070 | -101.95928 | 12598 ft | 303 kts | 108° |
| 2026-04-30 04:31 | 21.69411 | -101.93801 | 12988 ft | 305 kts | 108° |
| 2026-04-30 04:31 | 21.68747 | -101.91657 | 13380 ft | 307 kts | 108° |
| 2026-04-30 04:31 | 21.68083 | -101.89516 | 13767 ft | 309 kts | 108° |
| 2026-04-30 04:31 | 21.67426 | -101.87400 | 14140 ft | 310 kts | 108° |
| 2026-04-30 04:32 | 21.66752 | -101.85229 | 14527 ft | 311 kts | 108° |
| 2026-04-30 04:32 | 21.66082 | -101.83072 | 15016 ft | 313 kts | 108° |
| 2026-04-30 04:32 | 21.65401 | -101.80881 | 15505 ft | 316 kts | 108° |
| 2026-04-30 04:32 | 21.64713 | -101.78668 | 15992 ft | 318 kts | 108° |
| 2026-04-30 04:33 | 21.64034 | -101.76490 | 16488 ft | 320 kts | 107° |
| 2026-04-30 04:33 | 21.63165 | -101.74389 | 16939 ft | 324 kts | 122° |
| 2026-04-30 04:33 | 21.61882 | -101.72575 | 17453 ft | 327 kts | 128° |
| 2026-04-30 04:33 | 21.60400 | -101.70685 | 17978 ft | 330 kts | 129° |
| 2026-04-30 04:34 | 21.58880 | -101.68814 | 18483 ft | 333 kts | 130° |
| 2026-04-30 04:34 | 21.57375 | -101.66989 | 18971 ft | 336 kts | 130° |
| 2026-04-30 04:34 | 21.55842 | -101.65142 | 19463 ft | 339 kts | 130° |
| 2026-04-30 04:34 | 21.54302 | -101.63293 | 19952 ft | 342 kts | 130° |
| 2026-04-30 04:35 | 21.52715 | -101.61388 | 20214 ft | 348 kts | 130° |
| 2026-04-30 04:35 | 21.51129 | -101.59486 | 20212 ft | 347 kts | 130° |
| 2026-04-30 04:35 | 21.49558 | -101.57605 | 20591 ft | 341 kts | 130° |
| 2026-04-30 04:35 | 21.48086 | -101.55842 | 21073 ft | 347 kts | 130° |
| 2026-04-30 04:36 | 21.46395 | -101.53816 | 21227 ft | 369 kts | 130° |
| 2026-04-30 04:36 | 21.44642 | -101.51717 | 21287 ft | 393 kts | 130° |
| 2026-04-30 04:36 | 21.42831 | -101.49550 | 21325 ft | 415 kts | 130° |
| 2026-04-30 04:36 | 21.40864 | -101.47199 | 21268 ft | 440 kts | 130° |
| 2026-04-30 04:37 | 21.38789 | -101.44720 | 21268 ft | 461 kts | 130° |
| 2026-04-30 04:37 | 21.36713 | -101.42240 | 21253 ft | 482 kts | 130° |
| 2026-04-30 04:37 | 21.34444 | -101.39532 | 21235 ft | 492 kts | 130° |
| 2026-04-30 04:37 | 21.32191 | -101.36845 | 21195 ft | 485 kts | 130° |
| 2026-04-30 04:38 | 21.30402 | -101.34433 | 21177 ft | 480 kts | 124° |
| 2026-04-30 04:38 | 21.28870 | -101.31994 | 21290 ft | 479 kts | 122° |
| 2026-04-30 04:38 | 21.27046 | -101.28947 | 21861 ft | 480 kts | 121° |
| 2026-04-30 04:38 | 21.25049 | -101.25574 | 22399 ft | 481 kts | 121° |
| 2026-04-30 04:39 | 21.23091 | -101.22259 | 22938 ft | 480 kts | 121° |
| 2026-04-30 04:39 | 21.21190 | -101.19041 | 23459 ft | 480 kts | 121° |
| 2026-04-30 04:39 | 21.19485 | -101.16157 | 23935 ft | 483 kts | 121° |
| 2026-04-30 04:39 | 21.17628 | -101.13017 | 24467 ft | 489 kts | 121° |
| 2026-04-30 04:40 | 21.15788 | -101.09908 | 24983 ft | 495 kts | 121° |
| 2026-04-30 04:40 | 21.13937 | -101.06782 | 25488 ft | 498 kts | 121° |
| 2026-04-30 04:40 | 21.12067 | -101.03627 | 25979 ft | 497 kts | 121° |
| 2026-04-30 04:40 | 21.10210 | -101.00494 | 26470 ft | 497 kts | 121° |
| 2026-04-30 04:41 | 21.08411 | -100.97459 | 26947 ft | 496 kts | 121° |
| 2026-04-30 04:41 | 21.06657 | -100.94429 | 27421 ft | 497 kts | 120° |
| 2026-04-30 04:41 | 21.04905 | -100.91290 | 27928 ft | 501 kts | 120° |
| 2026-04-30 04:41 | 21.03168 | -100.88167 | 28421 ft | 505 kts | 120° |
| 2026-04-30 04:42 | 21.01365 | -100.84927 | 28924 ft | 506 kts | 120° |
| 2026-04-30 04:42 | 20.99626 | -100.81803 | 29398 ft | 504 kts | 120° |
| 2026-04-30 04:42 | 20.98082 | -100.79032 | 29819 ft | 503 kts | 120° |
| 2026-04-30 04:42 | 20.96132 | -100.75535 | 30336 ft | 494 kts | 120° |
| 2026-04-30 04:43 | 20.94389 | -100.72411 | 30824 ft | 492 kts | 120° |
| 2026-04-30 04:43 | 20.92632 | -100.69263 | 31323 ft | 491 kts | 120° |
| 2026-04-30 04:43 | 20.90937 | -100.66228 | 31803 ft | 491 kts | 120° |
| 2026-04-30 04:43 | 20.89455 | -100.63574 | 32283 ft | 489 kts | 120° |
| 2026-04-30 04:44 | 20.88049 | -100.61059 | 32788 ft | 488 kts | 121° |
| 2026-04-30 04:44 | 20.85888 | -100.57195 | 33549 ft | 486 kts | 121° |
| 2026-04-30 04:44 | 20.84168 | -100.54121 | 34160 ft | 483 kts | 121° |
| 2026-04-30 04:44 | 20.82448 | -100.51049 | 34773 ft | 481 kts | 121° |
| 2026-04-30 04:45 | 20.80753 | -100.48023 | 35380 ft | 478 kts | 121° |
| 2026-04-30 04:45 | 20.79054 | -100.44994 | 35988 ft | 474 kts | 121° |
| 2026-04-30 04:45 | 20.77688 | -100.42557 | 36481 ft | 471 kts | 121° |
| 2026-04-30 04:45 | 20.75807 | -100.39204 | 37114 ft | 467 kts | 121° |
| 2026-04-30 04:46 | 20.74413 | -100.36721 | 37163 ft | 475 kts | 121° |
| 2026-04-30 04:46 | 20.70809 | -100.30307 | 37207 ft | 482 kts | 121° |
| 2026-04-30 04:47 | 20.67373 | -100.24195 | 37206 ft | 478 kts | 121° |
| 2026-04-30 04:47 | 20.63967 | -100.18147 | 37210 ft | 479 kts | 121° |
| 2026-04-30 04:48 | 20.60641 | -100.12244 | 37212 ft | 479 kts | 121° |
| 2026-04-30 04:48 | 20.57206 | -100.06156 | 37211 ft | 479 kts | 121° |
| 2026-04-30 04:49 | 20.54005 | -100.00489 | 37223 ft | 479 kts | 121° |
| 2026-04-30 04:49 | 20.50841 | -99.94892 | 37248 ft | 479 kts | 121° |
| 2026-04-30 04:50 | 20.47652 | -99.89257 | 37279 ft | 479 kts | 121° |
| 2026-04-30 04:50 | 20.46073 | -99.86468 | 37384 ft | 477 kts | 121° |
| 2026-04-30 04:50 | 20.44348 | -99.83424 | 37951 ft | 473 kts | 121° |
| 2026-04-30 04:50 | 20.42396 | -99.79981 | 38497 ft | 470 kts | 121° |
| 2026-04-30 04:51 | 20.40730 | -99.77044 | 38979 ft | 467 kts | 121° |
| 2026-04-30 04:51 | 20.39079 | -99.74136 | 39457 ft | 463 kts | 121° |
| 2026-04-30 04:51 | 20.37418 | -99.71210 | 39941 ft | 459 kts | 121° |
| 2026-04-30 04:51 | 20.35837 | -99.68314 | 40259 ft | 459 kts | 116° |
| 2026-04-30 04:52 | 20.34730 | -99.65173 | 40324 ft | 463 kts | 107° |
| 2026-04-30 04:52 | 20.33961 | -99.61826 | 40289 ft | 470 kts | 96° |
| 2026-04-30 04:52 | 20.33885 | -99.58350 | 40338 ft | 474 kts | 84° |
| 2026-04-30 04:52 | 20.34516 | -99.54874 | 40329 ft | 478 kts | 71° |
| 2026-04-30 04:53 | 20.35617 | -99.51473 | 40337 ft | 485 kts | 72° |
| 2026-04-30 04:53 | 20.36808 | -99.44580 | 40312 ft | 495 kts | 88° |
| 2026-04-30 04:54 | 20.36676 | -99.37235 | 40310 ft | 487 kts | 90° |
| 2026-04-30 04:54 | 20.36463 | -99.30290 | 40309 ft | 480 kts | 91° |
| 2026-04-30 04:55 | 20.36240 | -99.23169 | 40315 ft | 482 kts | 91° |
| 2026-04-30 04:55 | 20.36012 | -99.15984 | 40312 ft | 483 kts | 91° |
| 2026-04-30 04:56 | 20.35781 | -99.08843 | 40311 ft | 482 kts | 91° |
| 2026-04-30 04:56 | 20.35547 | -99.01686 | 40311 ft | 482 kts | 91° |
| 2026-04-30 04:57 | 20.35311 | -98.94538 | 40311 ft | 482 kts | 91° |
| 2026-04-30 04:57 | 20.35075 | -98.87465 | 40311 ft | 481 kts | 90° |
| 2026-04-30 04:58 | 20.34834 | -98.80321 | 40311 ft | 482 kts | 90° |
| 2026-04-30 04:58 | 20.34589 | -98.73165 | 40312 ft | 482 kts | 90° |
| 2026-04-30 04:59 | 20.33618 | -98.66095 | 40346 ft | 483 kts | 103° |
| 2026-04-30 04:59 | 20.32559 | -98.62670 | 40285 ft | 485 kts | 114° |
| 2026-04-30 04:59 | 20.30896 | -98.59653 | 40321 ft | 486 kts | 126° |
| 2026-04-30 04:59 | 20.28587 | -98.56961 | 40320 ft | 486 kts | 139° |
| 2026-04-30 05:00 | 20.25954 | -98.54735 | 40328 ft | 487 kts | 140° |
| 2026-04-30 05:00 | 20.21075 | -98.49700 | 40311 ft | 486 kts | 134° |
| 2026-04-30 05:01 | 20.16648 | -98.44865 | 40314 ft | 486 kts | 134° |
| 2026-04-30 05:01 | 20.10982 | -98.38667 | 40308 ft | 471 kts | 134° |
| 2026-04-30 05:02 | 20.09357 | -98.36890 | 40315 ft | 472 kts | 134° |
| 2026-04-30 05:02 | 20.03810 | -98.30833 | 38884 ft | 479 kts | 134° |
| 2026-04-30 05:03 | 20.01919 | -98.29059 | 38357 ft | 477 kts | 144° |
| 2026-04-30 05:03 | 19.94605 | -98.25196 | 36745 ft | 467 kts | 166° |
| 2026-04-30 05:04 | 19.92232 | -98.24749 | 36274 ft | 463 kts | 176° |